Time;durP1;ratioP1;P1;durP2;ratioP2;P2;SDS_P1;SDS_P2;PMS_P1;PMS_P2;Temp;Humidity;BMP_temperature;BMP_pressure;BME280_temperature;BME280_humidity;BME280_pressure;Samples;Min_cycle;Max_cycle;Signal;HPM_P1;HPM_P2
2023/12/06 00:01:23;;;;;;;20.00;11.40;;;;;;;-1.48;100.00;101096.75;104603;1259;66615;-52
2023/12/06 00:03:51;;;;;;;20.20;12.70;;;;;;;-1.48;100.00;101102.58;105190;1256;72971;-52
2023/12/06 00:06:19;;;;;;;17.90;11.80;;;;;;;-1.47;100.00;101101.02;105113;1256;59740;-52
2023/12/06 00:08:48;;;;;;;20.70;12.40;;;;;;;-1.45;100.00;101102.46;104665;1260;60519;-53
2023/12/06 00:11:16;;;;;;;16.60;10.30;;;;;;;-1.43;100.00;101102.84;104821;1256;71851;-51
2023/12/06 00:13:43;;;;;;;19.80;13.10;;;;;;;-1.42;100.00;101105.86;104772;1257;67533;-52
2023/12/06 00:16:10;;;;;;;20.50;12.10;;;;;;;-1.41;100.00;101103.93;105010;1256;71410;-52
2023/12/06 00:18:41;;;;;;;19.40;12.30;;;;;;;-1.42;100.00;101099.51;104834;1259;59557;-52
2023/12/06 00:21:09;;;;;;;21.10;12.90;;;;;;;-1.44;100.00;101100.19;105830;1256;60488;-52
2023/12/06 00:23:36;;;;;;;19.30;11.80;;;;;;;-1.45;100.00;101095.95;104677;1256;71867;-51
2023/12/06 00:26:05;;;;;;;18.70;12.60;;;;;;;-1.48;100.00;101091.13;104771;1260;65647;-52
2023/12/06 00:28:32;;;;;;;18.30;11.80;;;;;;;-1.49;100.00;101088.80;104707;1259;73159;-52
2023/12/06 00:30:59;;;;;;;16.00;11.70;;;;;;;-1.51;100.00;101084.89;104808;1257;59832;-52
2023/12/06 00:33:28;;;;;;;20.50;12.70;;;;;;;-1.50;100.00;101086.32;104646;1257;61131;-52
2023/12/06 00:35:56;;;;;;;19.90;12.00;;;;;;;-1.50;100.00;101087.02;104883;1256;71939;-51
2023/12/06 00:38:23;;;;;;;16.00;11.00;;;;;;;-1.50;100.00;101084.39;104706;1258;65696;-51
2023/12/06 00:40:51;;;;;;;16.00;10.60;;;;;;;-1.49;100.00;101086.70;104744;1257;72733;-52
2023/12/06 00:43:18;;;;;;;15.20;10.40;;;;;;;-1.47;100.00;101087.46;104740;1257;59755;-52
2023/12/06 00:45:46;;;;;;;23.40;12.90;;;;;;;-1.46;100.00;101087.30;104659;1257;59635;-51
2023/12/06 00:48:13;;;;;;;18.40;11.00;;;;;;;-1.44;100.00;101086.80;104782;1256;73086;-52
2023/12/06 00:50:43;;;;;;;17.60;11.10;;;;;;;-1.43;100.00;101089.64;104758;1256;67262;-50
2023/12/06 00:53:10;;;;;;;23.60;12.50;;;;;;;-1.41;100.00;101089.67;104792;1259;72733;-52
2023/12/06 00:55:38;;;;;;;16.90;10.50;;;;;;;-1.41;100.00;101094.44;104653;1259;60907;-52
2023/12/06 00:58:05;;;;;;;19.10;11.60;;;;;;;-1.40;100.00;101097.11;104793;1257;60945;-52
2023/12/06 01:00:32;;;;;;;18.00;11.30;;;;;;;-1.39;100.00;101096.60;104686;1259;72990;-52
2023/12/06 01:03:00;;;;;;;18.10;11.20;;;;;;;-1.40;100.00;101090.07;105018;1259;67041;-52
2023/12/06 01:05:27;;;;;;;21.80;10.90;;;;;;;-1.40;100.00;101093.95;104944;1256;72679;-51
2023/12/06 01:07:55;;;;;;;20.00;11.50;;;;;;;-1.39;100.00;101091.31;104782;1256;59734;-47
2023/12/06 01:10:23;;;;;;;21.10;12.30;;;;;;;-1.40;100.00;101086.90;105734;1256;59753;-49
2023/12/06 01:12:51;;;;;;;18.70;10.90;;;;;;;-1.39;100.00;101081.99;104790;1257;73468;-52
2023/12/06 01:15:18;;;;;;;17.20;11.00;;;;;;;-1.40;100.00;101075.98;104586;1256;67141;-51
2023/12/06 01:17:46;;;;;;;15.10;10.40;;;;;;;-1.40;100.00;101065.08;104539;1259;71456;-52
2023/12/06 01:20:13;;;;;;;24.10;10.90;;;;;;;-1.38;100.00;101060.88;104728;1260;60969;-52
2023/12/06 01:22:41;;;;;;;21.20;13.20;;;;;;;-1.38;100.00;101055.44;108884;1256;58911;-52
2023/12/06 01:25:08;;;;;;;21.40;12.00;;;;;;;-1.38;100.00;101052.42;108826;1256;72710;-53
2023/12/06 01:27:36;;;;;;;16.50;11.00;;;;;;;-1.39;100.00;101055.23;108938;1254;67471;-52
2023/12/06 01:30:04;;;;;;;23.70;11.80;;;;;;;-1.40;100.00;101060.31;104832;1256;72690;-52
2023/12/06 01:32:40;;;;;;;15.00;10.90;;;;;;;-1.39;100.00;101057.33;108819;1255;59644;-53
2023/12/06 01:35:08;;;;;;;15.30;10.50;;;;;;;-1.39;100.00;101055.92;105693;1256;59939;-52
2023/12/06 01:37:36;;;;;;;16.30;10.50;;;;;;;-1.38;100.00;101060.72;104959;1253;73104;-51
2023/12/06 01:40:05;;;;;;;21.00;11.60;;;;;;;-1.38;100.00;101065.29;109164;1251;66366;-52
2023/12/06 01:42:32;;;;;;;17.80;10.70;;;;;;;-1.38;100.00;101063.17;109186;1252;71517;-52
2023/12/06 01:45:00;;;;;;;20.00;11.50;;;;;;;-1.37;100.00;101061.42;109155;1256;60942;-52
2023/12/06 01:47:27;;;;;;;19.80;12.10;;;;;;;-1.38;100.00;101059.32;109201;1251;60539;-52
2023/12/06 01:49:56;;;;;;;18.50;11.70;;;;;;;-1.37;100.00;101060.21;106388;1256;71798;-52
2023/12/06 01:52:24;;;;;;;17.20;10.80;;;;;;;-1.36;100.00;101060.21;104810;1253;66994;-51
2023/12/06 01:54:51;;;;;;;19.30;11.60;;;;;;;-1.36;100.00;101050.71;105093;1251;72726;-52
2023/12/06 01:57:19;;;;;;;16.30;9.90;;;;;;;-1.35;100.00;101047.20;104826;1257;59744;-52
2023/12/06 01:59:47;;;;;;;15.60;10.40;;;;;;;-1.34;100.00;101049.16;106642;1253;59628;-52
2023/12/06 02:02:14;;;;;;;15.20;9.90;;;;;;;-1.33;100.00;101050.59;104881;1251;73958;-52
2023/12/06 02:04:42;;;;;;;16.10;10.80;;;;;;;-1.35;100.00;101052.83;105040;1253;67395;-52
2023/12/06 02:07:09;;;;;;;18.10;11.30;;;;;;;-1.35;100.00;101054.06;104946;1253;71069;-53
2023/12/06 02:09:37;;;;;;;15.40;10.50;;;;;;;-1.35;100.00;101051.77;104829;1254;59686;-53
2023/12/06 02:12:04;;;;;;;17.40;10.80;;;;;;;-1.35;100.00;101051.60;104929;1256;60520;-53
2023/12/06 02:14:34;;;;;;;19.10;11.80;;;;;;;-1.37;100.00;101048.77;105046;1252;74707;-53
2023/12/06 02:17:03;;;;;;;17.40;11.80;;;;;;;-1.39;100.00;101049.61;105173;1253;67696;-52
2023/12/06 02:19:30;;;;;;;17.20;11.90;;;;;;;-1.40;100.00;101043.93;105036;1253;72661;-52
2023/12/06 02:21:58;;;;;;;15.40;9.50;;;;;;;-1.42;100.00;101045.64;105097;1253;60947;-53
2023/12/06 02:24:26;;;;;;;14.60;9.50;;;;;;;-1.44;100.00;101041.54;104868;1257;59602;-53
2023/12/06 02:26:54;;;;;;;15.00;10.60;;;;;;;-1.45;100.00;101041.18;104719;1251;71981;-52
2023/12/06 02:29:24;;;;;;;14.70;9.40;;;;;;;-1.44;100.00;101042.60;105925;1253;65762;-51
2023/12/06 02:31:52;;;;;;;18.30;10.20;;;;;;;-1.45;100.00;101045.42;104852;1256;74763;-51
2023/12/06 02:34:22;;;;;;;16.20;10.00;;;;;;;-1.44;100.00;101047.35;105214;1254;60550;-52
2023/12/06 02:36:52;;;;;;;16.30;10.00;;;;;;;-1.42;100.00;101050.39;106099;1251;59299;-52
2023/12/06 02:39:19;;;;;;;17.10;10.30;;;;;;;-1.41;100.00;101049.73;105759;1251;72572;-51
2023/12/06 02:41:47;;;;;;;16.60;10.90;;;;;;;-1.40;100.00;101044.11;104995;1251;68874;-52
2023/12/06 02:44:14;;;;;;;17.10;9.70;;;;;;;-1.40;100.00;101039.17;104967;1251;73175;-53
2023/12/06 02:46:41;;;;;;;16.50;11.00;;;;;;;-1.38;100.00;101037.10;105120;1253;60517;-53
2023/12/06 02:49:09;;;;;;;18.80;12.30;;;;;;;-1.39;100.00;101037.80;104799;1253;60362;-52
2023/12/06 02:51:36;;;;;;;18.90;11.70;;;;;;;-1.41;100.00;101034.75;105211;1256;72349;-52
2023/12/06 02:54:04;;;;;;;17.50;11.40;;;;;;;-1.43;100.00;101039.10;105068;1256;67978;-53
2023/12/06 02:56:31;;;;;;;19.10;12.50;;;;;;;-1.45;100.00;101040.32;104944;1256;72848;-52
2023/12/06 02:58:59;;;;;;;16.60;10.80;;;;;;;-1.48;100.00;101047.29;104898;1254;60534;-54
2023/12/06 03:01:26;;;;;;;19.50;11.20;;;;;;;-1.51;100.00;101045.81;104958;1253;60420;-50
2023/12/06 03:03:54;;;;;;;19.10;11.60;;;;;;;-1.53;100.00;101038.91;105069;1251;72770;-53
2023/12/06 03:06:21;;;;;;;21.40;11.50;;;;;;;-1.55;100.00;101036.23;104937;1253;66462;-51
2023/12/06 03:08:49;;;;;;;16.60;11.00;;;;;;;-1.56;100.00;101038.16;105085;1256;73149;-51
2023/12/06 03:11:16;;;;;;;28.00;11.20;;;;;;;-1.56;100.00;101040.11;105125;1256;61408;-52
2023/12/06 03:13:43;;;;;;;14.70;10.30;;;;;;;-1.54;100.00;101035.73;104893;1256;60943;-52
2023/12/06 03:16:11;;;;;;;16.20;10.40;;;;;;;-1.52;100.00;101034.16;105109;1253;74348;-52
2023/12/06 03:18:38;;;;;;;14.80;9.70;;;;;;;-1.51;100.00;101032.78;104926;1253;65994;-52
2023/12/06 03:21:06;;;;;;;14.90;10.10;;;;;;;-1.49;100.00;101032.11;104946;1254;72858;-51
2023/12/06 03:23:34;;;;;;;19.70;11.00;;;;;;;-1.47;100.00;101030.92;104900;1253;60327;-51
2023/12/06 03:26:02;;;;;;;22.10;11.90;;;;;;;-1.47;100.00;101032.52;104889;1253;60518;-51
2023/12/06 03:28:30;;;;;;;17.40;10.70;;;;;;;-1.46;100.00;101035.01;104804;1251;73936;-51
2023/12/06 03:30:57;;;;;;;19.60;11.30;;;;;;;-1.47;100.00;101031.12;104858;1251;67253;-50
2023/12/06 03:33:24;;;;;;;19.70;12.40;;;;;;;-1.48;100.00;101032.67;105360;1253;71425;-51
2023/12/06 03:35:52;;;;;;;18.80;10.70;;;;;;;-1.49;100.00;101026.30;106177;1251;60515;-52
2023/12/06 03:38:20;;;;;;;17.90;11.70;;;;;;;-1.52;100.00;101022.73;104984;1253;60443;-52
2023/12/06 03:40:47;;;;;;;21.20;13.40;;;;;;;-1.53;100.00;101016.73;104923;1253;72679;-53
2023/12/06 03:43:15;;;;;;;17.70;11.30;;;;;;;-1.55;100.00;101015.99;105048;1258;67734;-50
2023/12/06 03:45:43;;;;;;;17.10;11.00;;;;;;;-1.57;100.00;101018.24;104970;1252;71449;-52
2023/12/06 03:48:10;;;;;;;16.40;10.50;;;;;;;-1.58;100.00;101020.34;105236;1253;61402;-51
2023/12/06 03:50:38;;;;;;;17.80;10.30;;;;;;;-1.58;100.00;101027.02;104938;1256;60445;-51
2023/12/06 03:53:05;;;;;;;19.90;12.00;;;;;;;-1.57;100.00;101029.48;105073;1252;72705;-51
2023/12/06 03:55:33;;;;;;;19.90;12.30;;;;;;;-1.56;100.00;101032.69;104955;1251;67651;-51
2023/12/06 03:58:00;;;;;;;18.30;11.60;;;;;;;-1.56;100.00;101034.10;105214;1253;73227;-51
2023/12/06 04:00:28;;;;;;;17.10;11.10;;;;;;;-1.57;100.00;101037.96;104964;1255;60494;-51
2023/12/06 04:02:56;;;;;;;20.60;12.30;;;;;;;-1.58;100.00;101041.83;104864;1251;60502;-52
2023/12/06 04:05:23;;;;;;;21.70;11.80;;;;;;;-1.58;100.00;101048.13;104743;1251;73821;-52
2023/12/06 04:07:51;;;;;;;20.90;11.60;;;;;;;-1.59;100.00;101049.69;105022;1256;67400;-49
2023/12/06 04:10:18;;;;;;;22.20;13.00;;;;;;;-1.60;100.00;101053.19;104880;1253;73432;-50
2023/12/06 04:12:45;;;;;;;24.60;14.40;;;;;;;-1.62;100.00;101050.69;109109;1251;59878;-51
2023/12/06 04:15:13;;;;;;;22.00;12.20;;;;;;;-1.65;100.00;101046.93;105751;1256;60412;-50
2023/12/06 04:17:41;;;;;;;21.20;13.10;;;;;;;-1.68;100.00;101045.63;109147;1251;72941;-52
2023/12/06 04:20:10;;;;;;;17.70;11.20;;;;;;;-1.68;100.00;101048.08;109168;1251;66785;-51
2023/12/06 04:22:37;;;;;;;16.30;10.70;;;;;;;-1.69;100.00;101047.89;106075;1253;71411;-51
2023/12/06 04:25:05;;;;;;;17.50;11.80;;;;;;;-1.68;100.00;101042.29;105131;1253;60901;-51
2023/12/06 04:27:33;;;;;;;18.60;10.70;;;;;;;-1.66;100.00;101040.94;109167;1251;58167;-52
2023/12/06 04:30:00;;;;;;;15.40;9.60;;;;;;;-1.63;100.00;101039.41;109151;1253;74267;-52
2023/12/06 04:32:27;;;;;;;17.30;10.80;;;;;;;-1.61;100.00;101040.50;109311;1251;68256;-52
2023/12/06 04:34:55;;;;;;;17.40;10.80;;;;;;;-1.58;100.00;101044.27;109245;1251;73603;-51
2023/12/06 04:37:23;;;;;;;16.50;10.60;;;;;;;-1.56;100.00;101043.77;109143;1251;59794;-52
2023/12/06 04:39:51;;;;;;;20.00;12.60;;;;;;;-1.56;100.00;101046.77;109171;1251;59925;-51
2023/12/06 04:42:19;;;;;;;20.50;11.00;;;;;;;-1.55;100.00;101047.52;109255;1253;74237;-51
2023/12/06 04:44:46;;;;;;;15.90;10.80;;;;;;;-1.52;100.00;101048.24;109236;1251;66613;-52
2023/12/06 04:47:14;;;;;;;17.00;12.00;;;;;;;-1.54;100.00;101048.05;109144;1253;71405;-52
2023/12/06 04:49:41;;;;;;;17.60;11.60;;;;;;;-1.56;100.00;101048.52;106407;1254;62229;-50
2023/12/06 04:52:08;;;;;;;20.70;12.70;;;;;;;-1.58;100.00;101053.77;109154;1251;58829;-51
2023/12/06 04:54:36;;;;;;;16.60;11.40;;;;;;;-1.59;100.00;101054.96;107293;1256;74364;-51
2023/12/06 04:57:04;;;;;;;18.30;12.00;;;;;;;-1.59;100.00;101057.78;105001;1254;67279;-54
2023/12/06 04:59:31;;;;;;;20.80;11.30;;;;;;;-1.59;100.00;101063.44;104846;1257;73131;-51
2023/12/06 05:01:58;;;;;;;19.40;12.10;;;;;;;-1.58;100.00;101065.23;105057;1251;60549;-50
2023/12/06 05:04:27;;;;;;;15.50;10.00;;;;;;;-1.56;100.00;101062.27;105780;1254;60526;-50
2023/12/06 05:06:55;;;;;;;17.20;11.60;;;;;;;-1.55;100.00;101063.52;105092;1255;73908;-50
2023/12/06 05:09:22;;;;;;;14.60;9.10;;;;;;;-1.54;100.00;101059.85;104847;1254;66922;-50
2023/12/06 05:11:50;;;;;;;17.50;11.60;;;;;;;-1.51;100.00;101060.77;105036;1254;72721;-50
2023/12/06 05:14:18;;;;;;;19.00;12.40;;;;;;;-1.50;100.00;101061.66;104801;1253;60701;-51
2023/12/06 05:16:45;;;;;;;20.70;13.00;;;;;;;-1.49;100.00;101059.75;105073;1256;60902;-50
2023/12/06 05:19:12;;;;;;;20.50;12.30;;;;;;;-1.49;100.00;101062.41;105220;1254;74715;-50
2023/12/06 05:21:41;;;;;;;23.20;13.40;;;;;;;-1.49;100.00;101064.69;105151;1251;65796;-51
2023/12/06 05:24:08;;;;;;;22.30;13.90;;;;;;;-1.50;100.00;101064.30;104962;1253;71530;-51
2023/12/06 05:26:36;;;;;;;25.30;16.40;;;;;;;-1.54;100.00;101062.50;105113;1256;60533;-51
2023/12/06 05:29:03;;;;;;;27.70;15.40;;;;;;;-1.56;100.00;101061.58;105161;1255;60530;-51
2023/12/06 05:31:31;;;;;;;24.00;14.80;;;;;;;-1.58;100.00;101058.52;104933;1253;74021;-50
2023/12/06 05:33:58;;;;;;;24.00;15.70;;;;;;;-1.60;100.00;101062.34;105302;1253;67143;-51
2023/12/06 05:36:27;;;;;;;29.70;14.60;;;;;;;-1.62;100.00;101063.02;105233;1257;72683;-52
2023/12/06 05:38:54;;;;;;;26.00;15.10;;;;;;;-1.63;100.00;101059.84;105555;1253;60556;-51
2023/12/06 05:41:23;;;;;;;22.90;13.00;;;;;;;-1.61;100.00;101060.03;107281;1251;60623;-51
2023/12/06 05:43:52;;;;;;;22.60;13.30;;;;;;;-1.61;100.00;101061.80;104941;1253;73794;-51
2023/12/06 05:46:19;;;;;;;23.00;15.00;;;;;;;-1.61;100.00;101060.39;105532;1253;68092;-51
2023/12/06 05:48:47;;;;;;;21.60;13.40;;;;;;;-1.60;100.00;101058.65;104999;1254;71440;-51
2023/12/06 05:51:15;;;;;;;22.90;14.30;;;;;;;-1.58;100.00;101060.29;105077;1251;60965;-51
2023/12/06 05:53:42;;;;;;;23.70;14.00;;;;;;;-1.57;100.00;101061.73;105032;1253;60507;-50
2023/12/06 05:56:10;;;;;;;26.70;15.90;;;;;;;-1.57;100.00;101064.88;104976;1253;72604;-50
2023/12/06 05:58:39;;;;;;;27.10;15.70;;;;;;;-1.57;100.00;101065.94;104900;1251;67630;-51
2023/12/06 06:01:07;;;;;;;29.70;17.60;;;;;;;-1.57;100.00;101062.25;105291;1253;71463;-52
2023/12/06 06:03:35;;;;;;;29.50;17.10;;;;;;;-1.58;100.00;101062.40;105133;1253;60342;-51
2023/12/06 06:06:07;;;;;;;25.40;16.70;;;;;;;-1.61;100.00;101061.80;105294;1254;60457;-53
2023/12/06 06:08:35;;;;;;;31.70;18.00;;;;;;;-1.64;100.00;101062.80;106075;1251;74844;-51
2023/12/06 06:11:04;;;;;;;23.60;16.40;;;;;;;-1.68;100.00;101064.64;105839;1256;65529;-50
2023/12/06 06:13:31;;;;;;;23.50;15.50;;;;;;;-1.72;100.00;101069.31;105436;1253;72669;-51
2023/12/06 06:15:59;;;;;;;26.30;14.60;;;;;;;-1.75;100.00;101069.58;105196;1259;61828;-50
2023/12/06 06:18:29;;;;;;;23.70;15.40;;;;;;;-1.76;100.00;101070.09;105009;1256;60509;-51
2023/12/06 06:20:58;;;;;;;26.20;14.20;;;;;;;-1.76;100.00;101072.03;104956;1253;73901;-51
2023/12/06 06:23:28;;;;;;;22.10;12.90;;;;;;;-1.74;100.00;101068.55;104939;1256;67398;-52
2023/12/06 06:25:55;;;;;;;27.10;15.70;;;;;;;-1.73;100.00;101069.10;104919;1256;72642;-51
2023/12/06 06:28:22;;;;;;;24.00;14.60;;;;;;;-1.72;100.00;101069.14;105063;1252;63578;-51
2023/12/06 06:30:51;;;;;;;24.60;14.40;;;;;;;-1.70;100.00;101075.86;104895;1256;60484;-51
2023/12/06 06:33:18;;;;;;;22.80;14.50;;;;;;;-1.68;100.00;101077.84;104666;1256;72670;-52
2023/12/06 06:35:46;;;;;;;20.30;12.40;;;;;;;-1.67;100.00;101082.09;104954;1256;66355;-53
2023/12/06 06:38:13;;;;;;;23.10;14.90;;;;;;;-1.67;100.00;101086.48;106351;1256;71379;-51
2023/12/06 06:40:41;;;;;;;27.30;15.90;;;;;;;-1.67;100.00;101084.02;105035;1253;60553;-52
2023/12/06 06:43:09;;;;;;;21.10;13.50;;;;;;;-1.66;100.00;101083.17;104974;1251;60504;-51
2023/12/06 06:45:37;;;;;;;21.90;14.60;;;;;;;-1.67;100.00;101084.38;105150;1255;73930;-52
2023/12/06 06:48:05;;;;;;;31.10;15.50;;;;;;;-1.69;100.00;101086.27;105049;1254;65738;-50
2023/12/06 06:50:33;;;;;;;22.80;14.90;;;;;;;-1.71;100.00;101088.52;105345;1258;70560;-51
2023/12/06 06:53:01;;;;;;;23.40;14.90;;;;;;;-1.73;100.00;101091.98;104953;1253;60616;-52
2023/12/06 06:55:28;;;;;;;21.40;13.60;;;;;;;-1.74;100.00;101093.02;105162;1256;60338;-50
2023/12/06 06:58:03;;;;;;;22.70;14.10;;;;;;;-1.73;100.00;101099.02;104907;1253;72418;-52
2023/12/06 07:00:30;;;;;;;24.90;13.60;;;;;;;-1.71;100.00;101099.95;105012;1254;67159;-50
2023/12/06 07:02:59;;;;;;;21.70;14.20;;;;;;;-1.72;100.00;101106.63;104879;1253;71285;-51
2023/12/06 07:05:27;;;;;;;25.40;13.70;;;;;;;-1.71;100.00;101099.08;105021;1253;60565;-51
2023/12/06 07:07:54;;;;;;;25.50;14.30;;;;;;;-1.71;100.00;101102.60;104909;1256;62293;-52
2023/12/06 07:10:22;;;;;;;23.60;14.40;;;;;;;-1.69;100.00;101100.51;104854;1259;74275;-52
2023/12/06 07:12:49;;;;;;;22.50;13.50;;;;;;;-1.67;100.00;101098.44;104799;1253;67432;-52
2023/12/06 07:15:17;;;;;;;21.00;13.50;;;;;;;-1.65;100.00;101107.83;104858;1254;71235;-52
2023/12/06 07:17:45;;;;;;;23.60;14.00;;;;;;;-1.61;100.00;101103.36;104908;1253;63378;-52
2023/12/06 07:20:13;;;;;;;18.80;12.90;;;;;;;-1.57;100.00;101106.42;106562;1256;60446;-51
2023/12/06 07:22:40;;;;;;;22.30;13.40;;;;;;;-1.55;100.00;101108.41;104885;1254;72576;-52
2023/12/06 07:25:08;;;;;;;25.80;14.20;;;;;;;-1.54;100.00;101110.20;109218;1251;65903;-53
2023/12/06 07:27:35;;;;;;;26.90;15.50;;;;;;;-1.53;100.00;101109.33;109156;1252;72697;-53
2023/12/06 07:30:04;;;;;;;23.20;14.70;;;;;;;-1.53;100.00;101113.02;109092;1253;58455;-52
2023/12/06 07:32:32;;;;;;;27.00;15.10;;;;;;;-1.54;100.00;101114.77;105538;1253;60479;-49
2023/12/06 07:35:16;;;;;;;19.60;12.60;;;;;;;-1.56;100.00;101110.33;106858;1253;74352;-49
2023/12/06 07:37:44;;;;;;;17.90;12.80;;;;;;;-1.57;100.00;101109.06;105509;1254;65899;-51
2023/12/06 07:40:12;;;;;;;21.30;13.60;;;;;;;-1.58;100.00;101106.58;105096;1256;73194;-51
2023/12/06 07:42:39;;;;;;;19.20;13.30;;;;;;;-1.57;100.00;101106.25;105176;1254;60552;-51
2023/12/06 07:45:11;;;;;;;21.30;13.00;;;;;;;-1.55;100.00;101109.47;105119;1253;60517;-50
2023/12/06 07:47:39;;;;;;;18.10;10.80;;;;;;;-1.52;100.00;101113.75;105226;1253;73833;-51
2023/12/06 07:50:08;;;;;;;21.80;12.60;;;;;;;-1.49;100.00;101115.40;108655;1253;65716;-52
2023/12/06 07:52:36;;;;;;;22.80;14.20;;;;;;;-1.46;100.00;101117.59;105936;1258;72682;-51
2023/12/06 07:55:06;;;;;;;20.20;12.20;;;;;;;-1.42;100.00;101115.02;105207;1251;60591;-51
2023/12/06 07:57:33;;;;;;;23.80;13.30;;;;;;;-1.38;100.00;101115.12;108116;1256;60059;-51
2023/12/06 08:00:02;;;;;;;21.70;12.50;;;;;;;-1.33;100.00;101120.33;105939;1256;73901;-51
2023/12/06 08:02:39;;;;;;;19.90;12.10;;;;;;;-1.30;100.00;101124.63;105720;1254;67201;-51
2023/12/06 08:05:11;;;;;;;19.90;14.00;;;;;;;-1.26;100.00;101124.17;105042;1256;75083;-52
2023/12/06 08:07:39;;;;;;;20.50;12.80;;;;;;;-1.24;100.00;101131.96;105064;1254;60532;-51
2023/12/06 08:10:19;;;;;;;21.90;13.50;;;;;;;-1.23;100.00;101131.65;105061;1256;61020;-51
2023/12/06 08:12:47;;;;;;;23.80;15.80;;;;;;;-1.21;100.00;101134.50;105221;1253;74056;-51
2023/12/06 08:15:14;;;;;;;22.10;14.00;;;;;;;-1.19;100.00;101133.30;105361;1251;65417;-51
2023/12/06 08:17:42;;;;;;;23.50;13.40;;;;;;;-1.18;100.00;101129.62;105029;1254;71600;-52
2023/12/06 08:20:10;;;;;;;26.20;13.80;;;;;;;-1.17;100.00;101133.35;105108;1256;61281;-49
2023/12/06 08:22:37;;;;;;;21.60;13.20;;;;;;;-1.14;100.00;101135.34;105137;1251;61620;-51
2023/12/06 08:25:06;;;;;;;22.20;12.90;;;;;;;-1.11;100.00;101133.83;105164;1259;74299;-51
2023/12/06 08:27:34;;;;;;;19.40;13.30;;;;;;;-1.09;100.00;101138.80;106773;1253;65551;-51
2023/12/06 08:30:02;;;;;;;22.30;12.90;;;;;;;-1.04;100.00;101141.73;105048;1257;73205;-52
2023/12/06 08:32:31;;;;;;;21.40;14.00;;;;;;;-1.01;100.00;101142.48;107676;1251;60578;-50
2023/12/06 08:35:01;;;;;;;20.40;13.00;;;;;;;-0.99;100.00;101143.77;104984;1252;60504;-51
2023/12/06 08:37:28;;;;;;;21.10;13.90;;;;;;;-0.95;100.00;101142.96;105898;1253;72647;-51
2023/12/06 08:39:56;;;;;;;21.60;12.50;;;;;;;-0.93;100.00;101143.36;105242;1252;65829;-51
2023/12/06 08:42:24;;;;;;;22.70;14.60;;;;;;;-0.90;100.00;101147.47;104906;1253;73287;-53
2023/12/06 08:44:53;;;;;;;23.80;14.30;;;;;;;-0.89;100.00;101143.80;105022;1256;60665;-52
2023/12/06 08:47:23;;;;;;;25.20;14.80;;;;;;;-0.88;100.00;101141.01;105381;1256;61261;-53
2023/12/06 08:49:51;;;;;;;22.60;14.80;;;;;;;-0.87;100.00;101142.08;105277;1256;73752;-52
2023/12/06 08:52:19;;;;;;;22.10;13.90;;;;;;;-0.86;100.00;101140.70;105684;1253;65782;-52
2023/12/06 08:54:47;;;;;;;19.80;12.60;;;;;;;-0.83;100.00;101141.27;105367;1254;71459;-52
2023/12/06 08:57:14;;;;;;;22.40;14.30;;;;;;;-0.81;100.00;101142.55;105321;1254;60880;-51
2023/12/06 08:59:42;;;;;;;21.50;13.60;;;;;;;-0.79;100.00;101142.06;105064;1256;59311;-53
2023/12/06 09:02:09;;;;;;;21.30;13.90;;;;;;;-0.76;100.00;101133.13;104974;1253;72624;-51
2023/12/06 09:04:37;;;;;;;20.80;13.60;;;;;;;-0.73;100.00;101132.28;104976;1252;67459;-51
2023/12/06 09:07:05;;;;;;;23.10;13.60;;;;;;;-0.72;100.00;101134.44;105243;1256;72665;-53
2023/12/06 09:09:33;;;;;;;21.80;14.30;;;;;;;-0.70;100.00;101132.02;105108;1256;60485;-52
2023/12/06 09:12:01;;;;;;;21.90;14.00;;;;;;;-0.68;100.00;101132.05;105238;1256;60408;-51
2023/12/06 09:14:28;;;;;;;25.20;14.80;;;;;;;-0.68;100.00;101132.38;105112;1256;73815;-52
2023/12/06 09:16:55;;;;;;;21.40;15.20;;;;;;;-0.69;100.00;101126.39;105060;1252;67029;-52
2023/12/06 09:19:23;;;;;;;28.50;14.30;;;;;;;-0.68;100.00;101129.58;105001;1254;73129;-51
2023/12/06 09:22:06;;;;;;;24.90;14.70;;;;;;;-0.68;100.00;101128.87;104798;1256;60707;-52
2023/12/06 09:24:34;;;;;;;22.70;14.70;;;;;;;-0.68;100.00;101123.40;105374;1254;60416;-53
2023/12/06 09:27:02;;;;;;;24.50;14.50;;;;;;;-0.67;100.00;101120.77;104773;1251;73794;-52
2023/12/06 09:29:29;;;;;;;21.20;13.50;;;;;;;-0.64;100.00;101123.83;105484;1253;67293;-52
2023/12/06 09:31:57;;;;;;;20.60;13.20;;;;;;;-0.62;100.00;101121.40;106978;1254;71346;-52
2023/12/06 09:34:24;;;;;;;23.30;14.60;;;;;;;-0.59;100.00;101122.67;105017;1254;59647;-53
2023/12/06 09:37:07;;;;;;;23.40;14.30;;;;;;;-0.55;100.00;101128.95;104957;1256;61088;-50
2023/12/06 09:39:34;;;;;;;21.20;14.10;;;;;;;-0.49;100.00;101125.69;105038;1252;72675;-50
2023/12/06 09:42:02;;;;;;;23.60;14.20;;;;;;;-0.45;100.00;101127.54;105332;1256;66114;-50
2023/12/06 09:44:31;;;;;;;22.80;14.80;;;;;;;-0.42;100.00;101123.70;105034;1256;72696;-52
2023/12/06 09:47:01;;;;;;;26.80;14.70;;;;;;;-0.44;100.00;101126.50;105370;1256;60939;-51
2023/12/06 09:49:29;;;;;;;24.10;16.10;;;;;;;-0.47;100.00;101122.91;105031;1255;60805;-50
2023/12/06 09:52:18;;;;;;;25.20;16.40;;;;;;;-0.48;100.00;101119.20;104963;1256;72660;-51
2023/12/06 09:54:46;;;;;;;22.20;14.40;;;;;;;-0.49;100.00;101122.86;105264;1260;66982;-51
2023/12/06 09:57:15;;;;;;;23.90;14.10;;;;;;;-0.51;100.00;101121.97;105112;1257;71838;-51
2023/12/06 09:59:42;;;;;;;23.30;14.40;;;;;;;-0.50;100.00;101120.20;104841;1251;61367;-51
2023/12/06 10:02:10;;;;;;;22.20;14.20;;;;;;;-0.47;100.00;101123.96;105026;1256;60351;-52
2023/12/06 10:04:37;;;;;;;26.90;14.50;;;;;;;-0.44;100.00;101121.56;104968;1255;72633;-52
2023/12/06 10:07:05;;;;;;;18.10;12.10;;;;;;;-0.42;100.00;101124.94;107768;1256;67233;-52
2023/12/06 10:09:32;;;;;;;27.40;14.50;;;;;;;-0.42;100.00;101121.23;104990;1256;71740;-51
2023/12/06 10:12:19;;;;;;;25.70;14.00;;;;;;;-0.41;100.00;101119.84;104998;1256;60543;-51
2023/12/06 10:14:56;;;;;;;20.50;13.90;;;;;;;-0.36;100.00;101121.88;105117;1256;62298;-52
2023/12/06 10:17:24;;;;;;;23.00;13.10;;;;;;;-0.32;100.00;101127.05;105006;1254;71650;-50
2023/12/06 10:19:51;;;;;;;25.20;15.00;;;;;;;-0.30;100.00;101122.67;104897;1254;67046;-52
2023/12/06 10:22:18;;;;;;;22.90;14.30;;;;;;;-0.30;100.00;101123.55;104905;1258;73102;-51
2023/12/06 10:24:46;;;;;;;22.70;14.60;;;;;;;-0.30;100.00;101129.21;104840;1254;61524;-50
2023/12/06 10:27:14;;;;;;;26.30;13.90;;;;;;;-0.29;100.00;101126.40;109170;1252;60059;-51
2023/12/06 10:29:42;;;;;;;24.60;12.80;;;;;;;-0.30;100.00;101126.39;109140;1253;71831;-51
2023/12/06 10:32:10;;;;;;;25.00;12.30;;;;;;;-0.28;100.00;101124.67;109181;1253;66956;-52
2023/12/06 10:34:37;;;;;;;21.30;12.50;;;;;;;-0.27;100.00;101123.45;109023;1254;71813;-53
2023/12/06 10:37:05;;;;;;;21.20;13.20;;;;;;;-0.24;100.00;101121.38;109076;1254;60036;-52
2023/12/06 10:39:32;;;;;;;22.60;12.90;;;;;;;-0.19;100.00;101119.34;106484;1259;3391702;-52
2023/12/06 10:43:06;;;;;;;19.60;12.40;;;;;;;-0.14;100.00;101199.88;101760;1296;600506;-52
2023/12/06 10:45:33;;;;;;;22.40;12.40;;;;;;;-0.08;100.00;101209.35;103826;1274;59323;-50
2023/12/06 10:48:03;;;;;;;21.30;12.20;;;;;;;-0.03;100.00;101194.45;103741;1273;60115;-51
2023/12/06 10:50:31;;;;;;;19.90;11.20;;;;;;;-0.02;100.00;101189.54;108094;1271;74413;-51
2023/12/06 10:53:00;;;;;;;15.50;10.40;;;;;;;-0.03;100.00;101178.05;107948;1267;65852;-51
2023/12/06 10:55:30;;;;;;;18.80;11.00;;;;;;;-0.04;100.00;101174.84;104226;1270;71454;-51
2023/12/06 10:57:59;;;;;;;18.30;10.80;;;;;;;-0.05;100.00;101166.17;103527;1269;60989;-50
2023/12/06 11:00:27;;;;;;;23.20;12.30;;;;;;;-0.08;100.00;101163.11;104499;1266;70093;-53